x

Grays Reef - 40 Nm Southeast Of Savannah, Ga (41008) Wave Buoy

3:50am - Fri 18th Apr 2014 All times are EDT. -4 hours from GMT.

  • Sig Wave height 6.9ft
  • Swell Direction
  • Peak Period 6s
  • Average Period 5s
  • Wind
    22mph, 25mph gusts
  • Sea Temp 64°f
  • Air Temp 65°f
  • Sea Pressure 1022.4mb
  • Grays Reef - 40 Nm Southeast Of Savannah, Ga
  • Grays Reef - 40 Nm Southeast Of Savannah, Ga

More Historic Weather Station data

Upgrade to MSW Pro to gain access to the past 30 days of data for over 8000 Wavebouys and Weather Stations around the globe.

Join Pro

Comparision Forecast

View Surf forecast
   
Fri 04/18 3:50am 7ft 6s 5s 22 25 mph 1022.4mb 64f 65f
2:50am 6.5ft 6s 5s 25 29 mph 1022.4mb 64f 65f
1:50am 6ft 7s 5s 22 27 mph 1023.6mb 64f 65f
12:50am 6ft 6s 5s 22 27 mph 1023.8mb 64f 65f
Thu 04/17 11:50pm 7ft 7s 6s 25 31 mph 1024.4mb 64f 65f
10:50pm 7ft 7s 5s 25 29 mph 1025.1mb 64f 64f
9:50pm 7ft 7s 5s 27 31 mph 1025.5mb 64f 64f
8:50pm 7ft 7s 5s 27 31 mph 1025.4mb 64f 64f
7:50pm 7ft 6s 5s 27 31 mph 1025.2mb 64f 63f
6:50pm 7.5ft 7s 5s 25 29 mph 1025.9mb 64f 63f
5:50pm 7ft 7s 5s 25 29 mph 1025.5mb 64f 62f
4:50pm 7ft 7s 5s 25 31 mph 1025.7mb 64f 62f
3:50pm 7ft 7s 5s 27 31 mph 1026.1mb 64f 62f
2:50pm 7ft 6s 5s 25 31 mph 1027.2mb 64f 61f
1:50pm 6.5ft 7s 5s 22 29 mph 1027.6mb 64f 62f
12:50pm 7ft 8s 5s 25 29 mph 1027.7mb 64f 61f
11:50am 7.5ft 7s 6s 27 31 mph 1027.6mb 64f 61f
10:50am 7ft 7s 5s 27 31 mph 1027.3mb 64f 62f
9:50am 7ft 7s 5s 27 31 mph 1026.7mb 64f 61f
7:50am 7ft 8s 5s 27 34 mph 1025.2mb 64f 61f
6:50am 7ft 7s 5s 27 31 mph 1024.6mb 63f 61f
5:50am 7.5ft 7s 5s 27 31 mph 1023.8mb 63f 61f
4:50am 7ft 6s 5s 27 34 mph 1023.7mb 63f 60f
3:50am 7.5ft 7s 5s 27 31 mph 1023.8mb 63f 60f
2:50am 7.5ft 6s 5s 27 34 mph 1023.5mb 63f 60f
1:50am 7ft 7s 5s 27 29 mph 1024.1mb 64f 60f
12:50am 7ft 8s 5s 27 34 mph 1024.2mb 64f 60f
Wed 04/16 11:50pm 6.5ft 7s 5s 27 34 mph 1024.2mb 64f 60f
10:50pm 6.5ft 7s 5s 27 29 mph 1024.4mb 64f 59f
9:50pm 6ft 7s 5s 27 31 mph 1024.6mb 64f 58f
8:50pm 6ft 7s 5s 25 29 mph 1024.4mb 64f 57f
7:50pm 6ft 6s 5s 27 31 mph 1023.9mb 64f 56f
6:50pm 6ft 7s 5s 27 34 mph 1023.9mb 64f 56f
5:50pm 6.5ft 7s 5s 27 31 mph 1024.2mb 63f 55f
4:50pm 6.5ft 8s 5s 25 31 mph 1024.2mb 63f 55f
3:50pm 6ft 8s 5s 22 27 mph 1024.3mb 63f 56f
2:50pm 6ft 5s 5s 25 31 mph 1024.1mb 63f 55f
1:50pm 6.5ft 8s 5s 25 29 mph 1024.6mb 63f 54f
12:50pm 6ft 7s 5s 22 29 mph 1024.6mb 63f 53f
11:50am 7ft 7s 5s 22 27 mph 1024.5mb 63f 53f
10:50am 7ft 7s 5s 25 31 mph 1023.9mb 63f 52f
9:50am 7.5ft 7s 5s 27 31 mph 1023mb 63f 51f
8:50am 7.5ft 6s 5s 29 34 mph 1021.8mb 63f 51f
7:50am 7ft 6s 5s 27 34 mph 1020.9mb 63f 52f
6:50am 5.5ft 5s 4s 27 31 mph 1019.7mb 63f 53f
5:50am 5ft 5s 4s 27 34 mph 1018.2mb 64f 56f
4:50am 4.5ft 5s 4s 22 29 mph 1017.8mb 64f 54f
3:50am 4.5ft 5s 4s 25 29 mph 1016.9mb 64f 53f
2:50am 4.5ft 5s 4s 25 31 mph 1016.5mb 64f 53f
1:50am 4.5ft 4s 4s 25 29 mph 1016.3mb 65f 54f
12:50am 4.5ft 4s 4s 22 27 mph 1015.4mb 65f 55f
Tue 04/15 11:50pm 4.5ft 4s 4s 27 31 mph 1014.6mb 65f 55f
10:50pm 5ft 5s 4s 25 31 mph 1013.5mb 66f 56f
9:50pm 5.5ft 5s 4s 31 40 mph 1012.2mb 66f 58f
8:50pm 5.5ft 5s 5s 27 34 mph 1010.6mb 67f 60f
7:50pm 4.5ft 8s 5s 29 36 mph 1008.3mb 67f 65f
6:50pm 4ft 8s 5s 22 27 mph 1006.9mb 67f 66f
5:50pm 4.5ft 8s 5s 13 20 mph 1005.8mb 67f 69f
4:50pm 4ft 8s 6s 25 38 mph 1005.1mb 67f 69f
3:50pm 3.5ft 8s 5s 7 11 mph 1006.6mb 67f 68f
2:50pm 4ft 8s 6s 7 11 mph 1007.7mb 67f 68f
1:50pm 4ft 8s 5s 11 13 mph 1009.2mb 67f 67f
12:50pm 3.5ft 8s 5s 11 13 mph 1009.6mb 67f 67f
11:50am 3.5ft 8s 5s 18 20 mph 1010.7mb 67f 68f
10:50am 4ft 9s 6s 4 7 mph 1010.9mb 68f 68f
9:50am 3.5ft 8s 6s 13 16 mph 1010.2mb 68f 69f
8:50am 4ft 8s 6s 9 11 mph 1009.7mb 68f 69f
7:50am 4.5ft 8s 6s 11 13 mph 1009.6mb 68f 69f
6:50am 4ft 6s 5s 11 13 mph 1008.9mb 68f 69f
5:50am 4ft 8s 5s 9 11 mph 1009.1mb 68f 69f
4:50am 3.5ft 8s 5s 11 13 mph 1009.7mb 68f 69f
3:50am 3.5ft 8s 5s 13
mph
1010.1mb 68f 70f
2:50am 3.5ft 8s 5s 13 16 mph 1010.5mb 69f 69f
1:50am 3.5ft 9s 5s 13 16 mph 1011.1mb 67f 69f
12:50am 3ft 8s 5s 18 22 mph 1010.8mb 67f 70f
Mon 04/14 11:50pm 3ft 9s 6s 11 13 mph 1011mb 68f 70f
10:50pm 3.5ft 9s 6s 11 13 mph 1011.8mb 68f 70f
9:50pm 3.5ft 8s 6s 11 13 mph 1011.9mb 68f 70f
8:50pm 4.5ft 8s 6s 11
mph
1011.5mb 68f 70f
7:50pm 4.5ft 8s 6s 11 13 mph 1011.6mb 68f 70f
6:50pm 4.5ft 8s 6s 11 13 mph 1011.8mb 69f 70f
5:50pm 5ft 7s 6s 11 13 mph 1012.5mb 69f 71f
4:50pm 4.5ft 8s 6s 9 11 mph 1013.1mb 71f 71f
3:50pm 4.5ft 8s 6s 9 11 mph 1014.1mb 70f 71f
2:50pm 4ft 8s 6s 7 9 mph 1015.1mb 70f 71f
1:50pm 3.5ft 8s 6s 4
mph
1016.2mb 69f 70f
12:50pm 3.5ft 7s 6s 4 7 mph 1016.4mb 69f 69f
11:50am 3.5ft 8s 6s 2 4 mph 1017.1mb 68f 69f
10:50am 3.5ft 8s 6s 2 4 mph 1016.9mb 67f 68f
9:50am 4ft 8s 6s 4
mph
1016.5mb 66f 67f